Time;durP1;ratioP1;P1;durP2;ratioP2;P2;SDS_P1;SDS_P2;PMS_P1;PMS_P2;Temp;Humidity;BMP_temperature;BMP_pressure;BME280_temperature;BME280_humidity;BME280_pressure;Samples;Min_cycle;Max_cycle;Signal;HPM_P1;HPM_P2
2022/11/21 00:01:17;;;;;;;20.00;9.50;;;;;;;-1.47;72.44;99640.47;4879785;29;20040;-65
2022/11/21 00:03:43;;;;;;;26.40;10.23;;;;;;;-1.50;71.86;99641.63;4893297;29;20135;-65
2022/11/21 00:06:09;;;;;;;18.10;9.32;;;;;;;-1.42;71.69;99644.25;4896024;29;20136;-64
2022/11/21 00:08:34;;;;;;;18.05;9.82;;;;;;;-1.30;71.86;99644.81;4893919;29;20056;-65
2022/11/21 00:11:00;;;;;;;20.45;10.68;;;;;;;-1.31;70.97;99640.59;4879263;29;20060;-65
2022/11/21 00:13:26;;;;;;;20.80;10.25;;;;;;;-1.54;72.26;99639.47;4878913;29;20041;-65
2022/11/21 00:15:52;;;;;;;23.15;10.60;;;;;;;-1.54;72.11;99631.69;4879030;29;20120;-65
2022/11/21 00:18:17;;;;;;;21.90;10.05;;;;;;;-1.57;72.83;99642.38;4885600;29;20045;-65
2022/11/21 00:20:43;;;;;;;19.48;10.13;;;;;;;-1.52;72.91;99635.75;4893903;29;20077;-65
2022/11/21 00:23:10;;;;;;;22.10;9.95;;;;;;;-1.34;72.05;99622.69;4863311;29;20135;-66
2022/11/21 00:25:36;;;;;;;20.50;9.82;;;;;;;-1.34;71.90;99627.91;4878726;29;20449;-66
2022/11/21 00:28:03;;;;;;;17.48;9.27;;;;;;;-1.44;71.74;99628.00;4878925;29;20047;-66
2022/11/21 00:30:28;;;;;;;18.30;9.32;;;;;;;-1.37;71.57;99617.81;4878675;29;20562;-66
2022/11/21 00:32:54;;;;;;;19.85;9.85;;;;;;;-1.55;71.88;99619.66;4894267;29;20041;-67
2022/11/21 00:35:20;;;;;;;20.00;9.88;;;;;;;-1.57;72.19;99627.59;4878948;29;20053;-67
2022/11/21 00:37:47;;;;;;;23.00;10.30;;;;;;;-1.59;72.01;99626.94;4878640;29;20147;-68
2022/11/21 00:40:13;;;;;;;22.25;10.68;;;;;;;-1.64;72.40;99626.59;4894001;29;20045;-67
2022/11/21 00:42:39;;;;;;;24.98;10.38;;;;;;;-1.66;72.53;99616.34;4868741;29;20498;-69
2022/11/21 00:45:05;;;;;;;21.63;10.88;;;;;;;-1.67;72.38;99606.91;4901334;29;20056;-68
2022/11/21 00:47:31;;;;;;;19.05;9.57;;;;;;;-1.69;72.42;99603.66;4899959;29;20048;-67
2022/11/21 00:49:56;;;;;;;21.35;9.50;;;;;;;-1.58;72.46;99609.56;4899645;29;20053;-68
2022/11/21 00:52:22;;;;;;;24.27;10.85;;;;;;;-1.54;72.39;99614.28;4866447;29;20047;-68
2022/11/21 00:54:48;;;;;;;21.02;10.27;;;;;;;-1.63;72.32;99597.84;4894729;29;20060;-68
2022/11/21 00:57:13;;;;;;;19.98;11.07;;;;;;;-1.58;72.22;99599.16;4888745;29;20051;-68
2022/11/21 00:59:39;;;;;;;21.05;10.48;;;;;;;-1.60;72.07;99596.72;4880770;29;20036;-68
2022/11/21 01:02:05;;;;;;;21.33;10.18;;;;;;;-1.73;72.15;99585.94;4888443;29;20413;-68
2022/11/21 01:04:31;;;;;;;20.73;9.85;;;;;;;-1.79;72.40;99589.09;4881587;29;20036;-68
2022/11/21 01:06:57;;;;;;;23.17;10.48;;;;;;;-1.87;72.84;99593.28;4865829;29;20120;-69
2022/11/21 01:09:23;;;;;;;23.83;9.88;;;;;;;-1.83;72.85;99599.00;4866616;29;20502;-68
2022/11/21 01:11:49;;;;;;;24.45;9.88;;;;;;;-1.82;72.75;99611.03;4898926;29;20080;-67
2022/11/21 01:14:14;;;;;;;20.73;9.88;;;;;;;-1.76;73.29;99605.25;4898782;29;20048;-67
2022/11/21 01:16:40;;;;;;;20.60;10.88;;;;;;;-1.69;72.42;99608.03;4898547;29;20048;-67
2022/11/21 01:19:06;;;;;;;21.88;10.18;;;;;;;-1.67;72.37;99599.13;4862875;29;20072;-68
2022/11/21 01:21:31;;;;;;;19.10;9.13;;;;;;;-1.68;72.13;99589.66;4889553;29;20048;-66
2022/11/21 01:24:01;;;;;;;23.45;10.20;;;;;;;-1.96;72.80;99591.63;4881683;29;20044;-67
2022/11/21 01:26:29;;;;;;;20.08;9.50;;;;;;;-1.95;73.12;99590.63;4882435;29;20103;-66
2022/11/21 01:28:56;;;;;;;16.45;8.35;;;;;;;-1.96;73.10;99583.00;4865850;29;20139;-66
2022/11/21 01:31:26;;;;;;;22.52;10.10;;;;;;;-1.98;73.11;99584.94;4898018;29;20136;-67
2022/11/21 01:33:52;;;;;;;21.92;10.57;;;;;;;-1.96;73.34;99594.22;4881553;29;20055;-66
2022/11/21 01:36:20;;;;;;;18.95;9.70;;;;;;;-2.03;73.58;99585.38;4865902;29;20569;-67
2022/11/21 01:38:48;;;;;;;22.70;11.23;;;;;;;-1.97;73.32;99579.59;4881351;29;20135;-66
2022/11/21 01:41:17;;;;;;;23.02;10.60;;;;;;;-2.17;73.89;99575.56;4897801;29;20049;-66
2022/11/21 01:43:43;;;;;;;19.55;9.52;;;;;;;-2.15;74.16;99573.59;4897784;29;20044;-67
2022/11/21 01:46:08;;;;;;;21.55;9.52;;;;;;;-2.12;74.17;99575.91;4896537;29;20339;-67
2022/11/21 01:48:44;;;;;;;19.38;10.50;;;;;;;-2.22;73.66;99551.81;4885122;29;20060;-66
2022/11/21 01:51:36;;;;;;;20.95;9.52;;;;;;;-2.25;74.29;99563.31;4877811;29;20104;-66
2022/11/21 01:54:07;;;;;;;19.80;7.97;;;;;;;-2.24;74.41;99549.34;4881724;29;20037;-67
2022/11/21 01:56:40;;;;;;;21.67;9.32;;;;;;;-2.25;74.31;99547.72;4849798;29;20521;-67
2022/11/21 01:59:07;;;;;;;20.48;9.82;;;;;;;-2.31;74.37;99536.16;4882675;29;20047;-67
2022/11/21 02:01:34;;;;;;;23.52;10.70;;;;;;;-2.41;74.89;99537.19;4877488;29;20519;-65
2022/11/21 02:04:01;;;;;;;16.73;8.73;;;;;;;-2.34;74.68;99539.06;4867151;29;20558;-66
2022/11/21 02:06:26;;;;;;;19.73;9.70;;;;;;;-2.25;74.79;99528.75;4881453;29;20534;-66
2022/11/21 02:08:52;;;;;;;21.27;9.63;;;;;;;-2.24;74.52;99531.16;4897558;29;20037;-67
2022/11/21 02:11:40;;;;;;;17.10;8.85;;;;;;;-2.30;74.53;99529.19;4897392;29;20045;-67
2022/11/21 02:14:05;;;;;;;22.38;8.88;;;;;;;-2.26;74.60;99527.09;4880638;29;20032;-67
2022/11/21 02:16:33;;;;;;;25.02;11.35;;;;;;;-2.23;74.57;99529.41;4896752;29;20048;-66
2022/11/21 02:18:59;;;;;;;20.83;9.70;;;;;;;-2.19;74.40;99526.34;4881128;29;20064;-67
2022/11/21 02:21:31;;;;;;;22.77;10.27;;;;;;;-2.40;74.95;99516.31;4880397;29;20540;-67
2022/11/21 02:24:12;;;;;;;28.70;11.40;;;;;;;-2.34;75.07;99509.69;4896334;29;20498;-67
2022/11/21 02:26:37;;;;;;;21.48;9.68;;;;;;;-2.42;75.61;99509.63;4897328;29;20071;-67
2022/11/21 02:29:03;;;;;;;20.88;10.23;;;;;;;-2.41;75.38;99509.50;4880301;29;20041;-67
2022/11/21 02:31:28;;;;;;;23.25;10.38;;;;;;;-2.38;75.46;99514.38;4895860;29;20044;-67
2022/11/21 02:33:54;;;;;;;23.23;11.40;;;;;;;-2.46;75.70;99501.31;4880089;29;20049;-67
2022/11/21 02:36:34;;;;;;;21.20;9.73;;;;;;;-2.50;75.30;99481.81;4896093;29;20441;-67
2022/11/21 02:39:00;;;;;;;26.17;10.97;;;;;;;-2.42;75.49;99494.03;4897645;29;20045;-66
2022/11/21 02:41:26;;;;;;;24.88;9.40;;;;;;;-2.42;75.49;99494.84;4880166;29;20418;-66
2022/11/21 02:43:58;;;;;;;20.10;10.18;;;;;;;-2.39;75.38;99501.53;4894417;29;20081;-68
2022/11/21 02:46:26;;;;;;;18.83;9.63;;;;;;;-2.43;75.26;99508.00;4895300;29;20474;-68
2022/11/21 02:48:51;;;;;;;24.55;10.48;;;;;;;-2.48;75.53;99492.88;4895777;29;20076;-69
2022/11/21 02:51:17;;;;;;;23.17;10.50;;;;;;;-2.47;75.92;99494.53;4895971;29;20554;-69
2022/11/21 02:53:42;;;;;;;22.38;11.45;;;;;;;-2.44;75.44;99496.81;4864466;29;20200;-68
2022/11/21 02:56:08;;;;;;;22.27;9.98;;;;;;;-2.51;75.66;99500.97;4880215;29;20051;-66
2022/11/21 02:58:34;;;;;;;18.38;9.75;;;;;;;-2.57;76.07;99492.00;4895358;29;20455;-66
2022/11/21 03:01:00;;;;;;;21.42;10.40;;;;;;;-2.53;76.22;99489.91;4896432;29;20058;-66
2022/11/21 03:03:25;;;;;;;26.63;10.05;;;;;;;-2.54;76.08;99486.50;4880086;29;20140;-65
2022/11/21 03:05:51;;;;;;;22.38;10.25;;;;;;;-2.49;75.67;99480.06;4883316;29;20055;-66
2022/11/21 03:08:17;;;;;;;26.17;11.95;;;;;;;-2.41;75.93;99482.69;4895100;29;20197;-67
2022/11/21 03:10:43;;;;;;;21.58;9.93;;;;;;;-2.54;75.50;99472.72;4896472;29;20097;-66
2022/11/21 03:13:09;;;;;;;20.55;10.07;;;;;;;-2.55;76.00;99473.69;4879433;29;20050;-66
2022/11/21 03:15:34;;;;;;;24.42;12.27;;;;;;;-2.52;75.76;99479.38;4863552;29;20135;-65
2022/11/21 03:18:01;;;;;;;26.55;11.63;;;;;;;-2.44;75.75;99493.38;4896807;29;20055;-67
2022/11/21 03:20:28;;;;;;;25.98;11.50;;;;;;;-2.42;75.94;99496.66;4879699;29;20036;-65
2022/11/21 03:22:54;;;;;;;25.45;11.38;;;;;;;-2.39;75.60;99499.75;4879894;29;20059;-67
2022/11/21 03:25:20;;;;;;;27.15;11.95;;;;;;;-2.32;75.57;99499.97;4864003;29;20036;-64
2022/11/21 03:27:50;;;;;;;24.05;11.15;;;;;;;-2.24;74.91;99492.22;4896620;29;20060;-64
2022/11/21 03:30:15;;;;;;;25.63;11.98;;;;;;;-2.37;74.76;99495.22;4867315;29;20127;-65
2022/11/21 03:32:41;;;;;;;24.77;12.38;;;;;;;-2.32;75.28;99500.78;4896014;29;20045;-65
2022/11/21 03:35:07;;;;;;;23.45;12.05;;;;;;;-2.18;75.25;99508.97;4896423;29;20521;-65
2022/11/21 03:37:32;;;;;;;26.80;11.63;;;;;;;-2.16;74.67;99507.06;4860624;29;20108;-64
2022/11/21 03:39:58;;;;;;;21.73;11.18;;;;;;;-2.06;74.36;99512.94;4865297;29;20040;-65
2022/11/21 03:42:23;;;;;;;22.38;10.85;;;;;;;-2.09;73.62;99501.09;4896148;29;20063;-66
2022/11/21 03:44:49;;;;;;;24.25;11.38;;;;;;;-2.07;73.98;99511.31;4893856;29;20075;-66
2022/11/21 03:47:15;;;;;;;24.92;11.77;;;;;;;-2.06;74.41;99524.19;4896096;29;20053;-67
2022/11/21 03:49:41;;;;;;;23.70;10.98;;;;;;;-2.07;74.45;99513.94;4896234;29;20119;-67
2022/11/21 03:52:06;;;;;;;20.80;10.77;;;;;;;-2.02;74.04;99516.06;4903272;29;20113;-68
2022/11/21 03:54:32;;;;;;;23.10;11.68;;;;;;;-1.96;73.41;99516.28;4878680;29;20033;-67
2022/11/21 03:56:57;;;;;;;21.23;10.70;;;;;;;-1.96;72.93;99516.28;4879475;29;20470;-67
2022/11/21 03:59:23;;;;;;;25.08;10.27;;;;;;;-1.92;72.81;99514.19;4896209;29;20146;-67
2022/11/21 04:01:48;;;;;;;22.75;10.35;;;;;;;-1.82;72.79;99504.50;4894315;29;20053;-67
2022/11/21 04:04:14;;;;;;;19.60;10.68;;;;;;;-1.88;72.51;99507.72;4895573;29;20458;-67
2022/11/21 04:06:40;;;;;;;20.10;10.25;;;;;;;-1.83;72.44;99508.88;4895975;29;20048;-68
2022/11/21 04:09:05;;;;;;;22.33;9.93;;;;;;;-1.93;72.44;99510.78;4894626;29;20049;-68
2022/11/21 04:11:31;;;;;;;21.17;10.65;;;;;;;-2.01;73.00;99502.91;4894202;29;20045;-67
2022/11/21 04:13:57;;;;;;;26.13;11.05;;;;;;;-2.04;73.05;99502.41;4878950;29;20036;-66
2022/11/21 04:16:22;;;;;;;21.35;11.43;;;;;;;-2.04;73.13;99490.25;4880447;29;20044;-66
2022/11/21 04:18:48;;;;;;;21.33;11.32;;;;;;;-2.07;73.40;99496.56;4867780;29;20176;-67
2022/11/21 04:21:13;;;;;;;19.65;9.85;;;;;;;-2.14;73.56;99492.16;4911394;29;20044;-69
2022/11/21 04:23:39;;;;;;;20.88;10.25;;;;;;;-2.15;73.22;99480.09;4882503;29;20096;-67
2022/11/21 04:26:05;;;;;;;22.20;10.70;;;;;;;-2.16;73.11;99488.88;4882012;29;20390;-67
2022/11/21 04:28:30;;;;;;;21.23;10.77;;;;;;;-2.12;73.28;99490.19;4882398;29;20189;-68
2022/11/21 04:31:03;;;;;;;22.05;11.05;;;;;;;-2.10;73.40;99481.28;4882273;29;20040;-68
2022/11/21 04:33:29;;;;;;;19.15;10.35;;;;;;;-2.09;72.88;99479.50;4898760;29;20143;-68
2022/11/21 04:35:54;;;;;;;22.70;11.40;;;;;;;-2.06;73.10;99481.78;4881773;29;20095;-67
2022/11/21 04:38:20;;;;;;;19.85;11.57;;;;;;;-2.16;73.26;99475.88;4897940;29;20422;-66
2022/11/21 04:40:46;;;;;;;22.83;11.63;;;;;;;-2.15;73.79;99469.72;4882337;29;20151;-67
2022/11/21 04:43:11;;;;;;;24.55;11.63;;;;;;;-2.14;73.11;99469.56;4899354;29;20052;-68
2022/11/21 04:45:37;;;;;;;24.48;11.25;;;;;;;-2.10;73.06;99478.69;4897192;29;20119;-68
2022/11/21 04:48:05;;;;;;;20.35;10.85;;;;;;;-2.11;73.15;99471.06;4898068;29;20045;-68
2022/11/21 04:50:31;;;;;;;23.00;11.00;;;;;;;-2.17;73.11;99469.88;4882199;29;20048;-69
2022/11/21 04:52:57;;;;;;;24.15;12.13;;;;;;;-2.14;73.51;99472.19;4898101;29;20041;-66
2022/11/21 04:55:25;;;;;;;25.45;11.38;;;;;;;-2.00;72.90;99468.19;4866477;29;20048;-66
2022/11/21 04:57:51;;;;;;;23.75;11.70;;;;;;;-2.01;72.39;99476.13;4893435;29;20313;-66
2022/11/21 05:00:17;;;;;;;22.50;10.95;;;;;;;-2.10;72.53;99467.47;4897586;29;20105;-67
2022/11/21 05:02:44;;;;;;;22.88;11.02;;;;;;;-2.13;72.43;99463.41;4890769;29;20048;-66
2022/11/21 05:05:10;;;;;;;22.48;10.32;;;;;;;-2.15;72.80;99465.31;4882228;29;20129;-66
2022/11/21 05:07:36;;;;;;;20.48;11.35;;;;;;;-2.16;72.72;99463.72;4897175;29;20051;-67
2022/11/21 05:10:03;;;;;;;22.13;10.35;;;;;;;-2.18;72.77;99457.84;4881785;29;20044;-66
2022/11/21 05:15:13;;;;;;;25.50;11.77;;;;;;;-2.18;72.69;99464.81;4895887;29;20518;-66
2022/11/21 05:17:38;;;;;;;22.58;10.13;;;;;;;-2.26;72.86;99464.78;4898018;29;20577;-67
2022/11/21 05:20:05;;;;;;;21.75;10.90;;;;;;;-2.24;72.75;99463.66;4896135;29;20135;-67
2022/11/21 05:22:31;;;;;;;24.55;11.98;;;;;;;-2.20;72.67;99457.22;4896116;29;20053;-67
2022/11/21 05:24:57;;;;;;;24.27;11.40;;;;;;;-2.23;72.67;99465.31;4897406;29;20055;-66
2022/11/21 05:27:22;;;;;;;20.48;11.25;;;;;;;-2.24;72.70;99463.66;4864525;29;20434;-65
2022/11/21 05:29:48;;;;;;;21.50;10.18;;;;;;;-2.25;72.42;99464.63;4865710;29;20112;-66
2022/11/21 05:32:13;;;;;;;30.20;11.23;;;;;;;-2.22;72.19;99460.91;4897235;29;20049;-66
2022/11/21 05:34:39;;;;;;;21.30;10.40;;;;;;;-2.35;72.39;99456.97;4896563;29;20331;-69
2022/11/21 05:37:05;;;;;;;21.13;10.50;;;;;;;-2.39;72.46;99458.22;4879651;29;20538;-67
2022/11/21 05:39:31;;;;;;;20.35;10.07;;;;;;;-2.56;73.09;99452.09;4897595;29;20044;-67
2022/11/21 05:41:56;;;;;;;22.27;10.25;;;;;;;-2.42;72.62;99448.13;4896513;29;20060;-68
2022/11/21 05:44:22;;;;;;;22.38;10.90;;;;;;;-2.41;72.69;99441.16;4879449;29;20047;-67
2022/11/21 05:46:48;;;;;;;23.50;9.20;;;;;;;-2.40;72.68;99450.59;4897589;29;20056;-68
2022/11/21 05:49:14;;;;;;;21.88;10.15;;;;;;;-2.40;72.75;99448.81;4897181;29;20040;-68
2022/11/21 05:51:40;;;;;;;23.88;11.27;;;;;;;-2.31;72.56;99452.25;4865242;29;20037;-68
2022/11/21 05:54:06;;;;;;;24.85;10.15;;;;;;;-2.37;72.29;99451.09;4895719;29;20049;-68
2022/11/21 05:56:31;;;;;;;20.33;10.48;;;;;;;-2.24;72.69;99444.66;4879748;29;20074;-68
2022/11/21 05:58:57;;;;;;;19.73;10.73;;;;;;;-2.25;72.39;99453.44;4863011;29;20085;-67
2022/11/21 06:04:08;;;;;;;25.77;11.27;;;;;;;-2.14;72.81;99455.78;4894136;29;20072;-68
2022/11/21 06:06:34;;;;;;;21.50;10.68;;;;;;;-2.04;71.92;99460.84;4895786;29;20052;-67
2022/11/21 06:09:00;;;;;;;18.95;10.02;;;;;;;-2.14;72.48;99454.00;4892545;29;20044;-68
2022/11/21 06:11:26;;;;;;;21.23;9.80;;;;;;;-2.19;72.15;99453.63;4862925;29;20048;-68
2022/11/21 06:13:52;;;;;;;24.27;10.80;;;;;;;-2.08;72.56;99455.97;4863310;29;20048;-67
2022/11/21 06:16:19;;;;;;;18.48;10.35;;;;;;;-2.11;72.11;99445.91;4894457;29;20037;-67
2022/11/21 06:18:51;;;;;;;23.58;11.52;;;;;;;-2.16;71.64;99455.91;4877817;29;20076;-68
2022/11/21 06:21:19;;;;;;;22.85;10.50;;;;;;;-2.21;72.26;99458.16;4878860;29;20056;-66
2022/11/21 06:23:46;;;;;;;22.95;11.13;;;;;;;-2.30;72.07;99454.69;4891458;29;20135;-67
2022/11/21 06:26:16;;;;;;;21.15;10.65;;;;;;;-2.41;72.12;99443.75;4893561;29;20067;-67
2022/11/21 06:28:44;;;;;;;23.15;11.13;;;;;;;-2.41;72.36;99454.97;4892800;29;20411;-67
2022/11/21 06:31:13;;;;;;;22.20;10.57;;;;;;;-2.41;72.68;99446.34;4891711;29;20096;-67
2022/11/21 06:33:40;;;;;;;21.27;9.55;;;;;;;-2.42;72.28;99450.72;4892723;29;20522;-66
2022/11/21 06:36:06;;;;;;;22.25;11.88;;;;;;;-2.47;72.36;99447.78;4891707;29;20048;-65
2022/11/21 06:38:32;;;;;;;20.40;10.27;;;;;;;-2.49;72.41;99441.13;4890899;29;20048;-67
2022/11/21 06:41:06;;;;;;;18.08;10.20;;;;;;;-2.54;72.08;99454.53;4876106;29;20048;-69
2022/11/21 06:43:32;;;;;;;21.70;11.43;;;;;;;-2.47;72.77;99434.81;4876608;29;20068;-68
2022/11/21 06:45:57;;;;;;;19.67;9.50;;;;;;;-2.44;72.31;99436.25;4845796;29;20498;-66
2022/11/21 06:48:24;;;;;;;24.45;11.32;;;;;;;-2.40;72.13;99451.41;4895442;29;20119;-68
2022/11/21 06:50:50;;;;;;;23.63;11.15;;;;;;;-2.42;71.79;99453.31;4894131;29;20406;-68
2022/11/21 06:53:15;;;;;;;20.40;10.02;;;;;;;-2.34;72.09;99448.19;4877827;29;20045;-67
2022/11/21 06:55:41;;;;;;;22.90;11.52;;;;;;;-2.16;71.81;99460.31;4877299;29;20052;-66
2022/11/21 06:58:07;;;;;;;21.85;10.63;;;;;;;-2.00;70.72;99462.16;4893521;29;20103;-67
2022/11/21 07:00:33;;;;;;;23.30;11.43;;;;;;;-1.99;71.38;99463.81;4856963;29;20041;-66
2022/11/21 07:03:01;;;;;;;19.60;9.82;;;;;;;-1.92;69.93;99459.63;4857831;29;20044;-66
2022/11/21 07:05:27;;;;;;;23.20;10.02;;;;;;;-1.87;70.16;99460.78;4899185;29;20108;-66
2022/11/21 07:08:00;;;;;;;20.02;9.65;;;;;;;-1.88;69.94;99460.97;4890144;29;20143;-67
2022/11/21 07:10:26;;;;;;;23.05;10.45;;;;;;;-1.89;70.10;99474.91;4875559;29;20099;-66
2022/11/21 07:15:41;;;;;;;17.52;10.68;;;;;;;-2.12;70.29;99475.44;4890052;29;20558;-68
2022/11/21 07:18:07;;;;;;;16.83;9.43;;;;;;;-1.98;70.21;99470.63;4859279;29;20047;-69
2022/11/21 07:20:32;;;;;;;22.95;10.27;;;;;;;-2.04;69.94;99468.66;4874193;29;20045;-65
2022/11/21 07:23:00;;;;;;;21.80;9.52;;;;;;;-2.25;70.86;99454.25;4891021;29;20075;-66
2022/11/21 07:25:28;;;;;;;18.60;10.93;;;;;;;-2.08;70.56;99450.78;4844868;29;20041;-66
2022/11/21 07:27:57;;;;;;;15.48;8.35;;;;;;;-2.29;71.35;99448.56;4859147;29;20101;-66
2022/11/21 07:30:23;;;;;;;22.15;11.40;;;;;;;-2.21;71.06;99445.16;4892390;29;20056;-67
2022/11/21 07:32:55;;;;;;;22.05;10.43;;;;;;;-2.39;71.29;99447.81;4893484;29;20040;-66
2022/11/21 07:35:20;;;;;;;22.17;10.27;;;;;;;-2.22;70.89;99450.53;4878233;29;20044;-66
2022/11/21 07:37:46;;;;;;;22.45;9.75;;;;;;;-2.29;71.19;99442.56;4893594;29;20064;-66
2022/11/21 07:40:12;;;;;;;18.92;9.63;;;;;;;-2.26;71.18;99437.06;4877419;29;20044;-66
2022/11/21 07:42:42;;;;;;;18.67;10.80;;;;;;;-2.38;70.84;99417.47;4890002;29;20052;-65
2022/11/21 07:45:10;;;;;;;24.48;11.55;;;;;;;-2.19;71.16;99440.66;4875196;29;20044;-64
2022/11/21 07:47:36;;;;;;;23.92;11.88;;;;;;;-2.37;71.40;99447.69;4891121;29;20082;-66
2022/11/21 07:50:02;;;;;;;18.60;9.32;;;;;;;-2.38;70.78;99451.22;4890490;29;20135;-67
2022/11/21 07:52:29;;;;;;;24.08;10.07;;;;;;;-2.30;70.72;99452.09;4873899;29;20398;-67
2022/11/21 07:54:56;;;;;;;16.27;9.07;;;;;;;-2.30;70.11;99452.09;4891797;29;20056;-66
2022/11/21 07:57:22;;;;;;;17.77;8.75;;;;;;;-2.31;69.96;99447.88;4892145;29;20080;-65
2022/11/21 07:59:47;;;;;;;14.52;8.10;;;;;;;-2.34;69.47;99444.78;4873641;29;20047;-64
2022/11/21 08:02:21;;;;;;;20.73;9.20;;;;;;;-2.20;69.45;99457.22;4891204;29;20480;-65
2022/11/21 08:04:47;;;;;;;17.00;8.25;;;;;;;-2.28;69.30;99434.59;4891240;29;20521;-65
2022/11/21 08:07:14;;;;;;;18.65;8.85;;;;;;;-2.12;68.49;99440.84;4890157;29;20146;-65
2022/11/21 08:09:40;;;;;;;18.60;8.20;;;;;;;-2.08;68.95;99443.00;4891217;29;20051;-66
2022/11/21 08:12:06;;;;;;;16.73;9.00;;;;;;;-2.08;68.55;99445.59;4875229;29;20048;-65
2022/11/21 08:14:32;;;;;;;21.73;9.85;;;;;;;-2.28;68.80;99441.56;4858704;29;20395;-65
2022/11/21 08:16:58;;;;;;;14.48;8.30;;;;;;;-2.16;69.14;99439.53;4891267;29;20048;-66
2022/11/21 08:19:24;;;;;;;16.90;9.15;;;;;;;-2.04;68.67;99442.69;4890606;29;20203;-65
2022/11/21 08:21:49;;;;;;;15.82;8.50;;;;;;;-1.97;68.36;99441.06;4890114;29;20052;-65
2022/11/21 08:24:16;;;;;;;16.08;9.00;;;;;;;-1.86;68.41;99452.00;4890417;29;20439;-66
2022/11/21 08:26:43;;;;;;;17.15;8.30;;;;;;;-1.78;67.81;99445.22;4891618;29;20438;-65
2022/11/21 08:29:10;;;;;;;22.77;8.80;;;;;;;-1.84;68.04;99454.47;4888453;29;20048;-66
2022/11/21 08:31:36;;;;;;;18.50;10.05;;;;;;;-1.78;68.25;99453.84;4889450;29;20048;-65
2022/11/21 08:34:03;;;;;;;19.50;9.95;;;;;;;-1.86;68.04;99454.59;4874183;29;20063;-66
2022/11/21 08:36:29;;;;;;;22.95;10.68;;;;;;;-1.73;68.09;99450.78;4890435;29;20060;-67
2022/11/21 08:38:54;;;;;;;19.00;10.45;;;;;;;-1.63;67.24;99448.84;4873902;29;20236;-69
2022/11/21 08:44:05;;;;;;;20.33;10.57;;;;;;;-1.60;67.27;99457.16;4890056;29;20045;-66
2022/11/21 08:46:36;;;;;;;21.42;10.63;;;;;;;-1.57;66.98;99456.03;4855616;29;20037;-69
2022/11/21 08:49:03;;;;;;;20.40;10.10;;;;;;;-1.72;66.95;99450.63;4877852;29;20097;-68
2022/11/21 08:51:28;;;;;;;17.38;8.98;;;;;;;-1.75;66.81;99456.13;4856685;29;20044;-65
2022/11/21 08:53:54;;;;;;;21.27;9.82;;;;;;;-1.67;66.82;99457.94;4859071;29;20048;-70
2022/11/21 08:56:20;;;;;;;18.52;9.70;;;;;;;-1.71;67.15;99454.81;4889564;29;20040;-72
2022/11/21 08:58:46;;;;;;;17.75;9.40;;;;;;;-1.57;66.51;99460.41;4883297;29;20041;-70
2022/11/21 09:01:11;;;;;;;17.70;8.73;;;;;;;-1.54;66.28;99462.69;4880077;29;20136;-68
2022/11/21 09:03:38;;;;;;;18.83;9.40;;;;;;;-1.56;66.05;99452.44;4893225;29;20535;-70
2022/11/21 09:06:04;;;;;;;15.48;8.27;;;;;;;-1.70;66.33;99433.09;4876415;29;20072;-68
2022/11/21 09:08:30;;;;;;;18.77;8.90;;;;;;;-1.61;65.95;99450.34;4892233;29;20037;-70
2022/11/21 09:10:56;;;;;;;20.08;9.80;;;;;;;-1.68;66.48;99427.72;4892006;29;20051;-70
2022/11/21 09:13:23;;;;;;;16.10;8.77;;;;;;;-1.53;66.31;99439.16;4861839;29;20044;-70
2022/11/21 09:18:34;;;;;;;12.07;6.72;;;;;;;-1.69;65.96;99436.50;4894375;29;20059;-68
2022/11/21 09:21:00;;;;;;;13.75;8.32;;;;;;;-1.65;66.28;99454.22;4891113;29;20044;-68
2022/11/21 09:23:26;;;;;;;14.65;8.27;;;;;;;-1.60;65.70;99425.97;4876513;29;20399;-68
2022/11/21 09:25:52;;;;;;;12.48;6.43;;;;;;;-1.76;65.92;99425.91;4892542;29;20629;-69
2022/11/21 09:28:18;;;;;;;13.88;7.40;;;;;;;-1.85;66.88;99412.09;4891312;29;20071;-68
2022/11/21 09:30:43;;;;;;;16.05;7.30;;;;;;;-1.75;65.72;99421.53;4877037;29;20132;-69
2022/11/21 09:33:11;;;;;;;11.85;6.65;;;;;;;-1.71;66.03;99425.44;4896039;29;20055;-70
2022/11/21 09:35:37;;;;;;;12.75;7.13;;;;;;;-1.85;66.09;99412.09;4878193;29;20068;-69
2022/11/21 09:38:04;;;;;;;14.80;8.05;;;;;;;-1.89;66.67;99399.53;4894615;29;20072;-70
2022/11/21 09:40:30;;;;;;;13.35;7.40;;;;;;;-1.91;66.66;99412.72;4896639;29;20079;-71
2022/11/21 09:42:56;;;;;;;14.90;7.07;;;;;;;-2.00;66.97;99420.59;4832914;29;20051;-68
2022/11/21 09:45:29;;;;;;;13.82;7.57;;;;;;;-1.95;66.75;99418.38;4896050;29;20403;-66
2022/11/21 09:47:55;;;;;;;18.52;7.78;;;;;;;-1.86;66.42;99409.63;4890718;29;20052;-66
2022/11/21 09:50:31;;;;;;;14.38;8.30;;;;;;;-1.88;66.73;99406.38;4896318;29;20400;-68
2022/11/21 09:53:20;;;;;;;13.70;7.75;;;;;;;-1.99;66.59;99404.88;4876452;29;20438;-68
2022/11/21 09:55:50;;;;;;;15.15;7.78;;;;;;;-1.86;67.35;99404.44;4861792;29;20048;-67
2022/11/21 09:58:23;;;;;;;12.40;7.00;;;;;;;-1.90;66.40;99406.53;4878682;29;20061;-71
2022/11/21 10:00:51;;;;;;;13.88;7.88;;;;;;;-1.91;66.72;99414.47;4895009;29;20103;-70
2022/11/21 10:03:17;;;;;;;11.45;6.82;;;;;;;-1.81;66.19;99417.78;4878569;29;20040;-68
2022/11/21 10:05:51;;;;;;;15.88;8.32;;;;;;;-1.79;66.07;99402.00;4878693;29;20147;-69
2022/11/21 10:08:45;;;;;;;15.55;8.15;;;;;;;-1.78;66.44;99394.06;4895227;29;20056;-68
2022/11/21 10:11:28;;;;;;;10.68;6.15;;;;;;;-1.88;66.41;99391.63;4878571;29;20100;-69
2022/11/21 10:14:25;;;;;;;13.57;7.07;;;;;;;-1.85;66.59;99403.47;4894029;29;20055;-69
2022/11/21 10:17:10;;;;;;;15.13;7.57;;;;;;;-1.81;67.21;99404.78;4876374;29;20147;-70
2022/11/21 10:20:05;;;;;;;13.45;7.88;;;;;;;-1.68;66.71;99412.13;4893966;29;20570;-68
2022/11/21 10:22:50;;;;;;;14.68;8.25;;;;;;;-1.63;65.42;99382.09;4891148;29;20412;-67
2022/11/21 10:25:22;;;;;;;16.35;7.97;;;;;;;-1.54;66.14;99392.50;4893374;29;20142;-70
2022/11/21 10:28:01;;;;;;;14.02;7.68;;;;;;;-1.48;65.77;99394.47;4877491;29;20139;-68
2022/11/21 10:30:28;;;;;;;14.43;8.43;;;;;;;-1.41;65.87;99380.69;4877676;29;20051;-68
2022/11/21 10:33:04;;;;;;;14.13;7.90;;;;;;;-1.32;65.21;99372.88;4892662;29;20418;-69
2022/11/21 10:35:43;;;;;;;13.80;8.55;;;;;;;-1.39;65.29;99367.50;4876897;29;20049;-68
2022/11/21 10:38:21;;;;;;;13.55;7.47;;;;;;;-1.42;65.11;99367.84;4858771;29;20045;-68
2022/11/21 10:41:10;;;;;;;16.95;8.30;;;;;;;-1.70;65.81;99359.50;4853088;29;20071;-67
2022/11/21 10:46:28;;;;;;;18.08;9.18;;;;;;;-1.81;66.20;99355.41;4854401;29;20602;-69
2022/11/21 10:49:01;;;;;;;17.00;8.50;;;;;;;-1.74;67.14;99369.38;4852090;29;20501;-68
2022/11/21 10:52:21;;;;;;;14.27;7.88;;;;;;;-1.79;66.73;99368.22;4869186;29;20052;-69
2022/11/21 10:55:01;;;;;;;16.15;8.50;;;;;;;-1.88;66.92;99360.44;4821122;29;20098;-67
2022/11/21 10:57:39;;;;;;;14.68;8.52;;;;;;;-1.87;67.03;99359.44;4838495;29;20057;-67
2022/11/21 11:00:11;;;;;;;19.67;9.30;;;;;;;-1.80;67.48;99362.22;4803216;29;20046;-68
2022/11/21 11:03:03;;;;;;;15.60;8.65;;;;;;;-1.76;66.91;99370.53;4856460;29;20140;-68
2022/11/21 11:05:36;;;;;;;17.25;8.77;;;;;;;-1.74;66.67;99363.38;4870061;29;20068;-67
2022/11/21 11:08:03;;;;;;;19.77;9.80;;;;;;;-1.64;66.46;99351.88;4852051;29;20125;-69
2022/11/21 11:10:31;;;;;;;19.35;9.32;;;;;;;-1.70;66.53;99359.50;4856137;29;20057;-68
2022/11/21 11:16:09;;;;;;;22.45;10.73;;;;;;;-1.68;66.93;99347.16;4869971;29;20050;-69
2022/11/21 11:18:44;;;;;;;16.95;8.23;;;;;;;-1.70;66.38;99343.91;4855045;29;20468;-68
2022/11/21 11:21:21;;;;;;;17.52;9.52;;;;;;;-1.82;66.58;99330.41;4838950;29;20093;-69
2022/11/21 11:23:49;;;;;;;18.70;10.05;;;;;;;-1.79;66.64;99335.28;4852592;29;20513;-68
2022/11/21 11:26:21;;;;;;;16.88;9.60;;;;;;;-1.73;66.63;99334.66;4849025;29;20076;-70
2022/11/21 11:28:47;;;;;;;17.85;8.73;;;;;;;-1.74;66.43;99342.59;4851433;29;20634;-69
2022/11/21 11:31:15;;;;;;;18.20;9.63;;;;;;;-1.75;66.53;99336.59;4855940;29;20145;-69
2022/11/21 11:33:47;;;;;;;19.17;9.45;;;;;;;-1.73;67.16;99337.25;4837173;29;20045;-69
2022/11/21 11:36:28;;;;;;;22.48;10.90;;;;;;;-1.82;67.04;99333.00;4871135;29;20097;-68
2022/11/21 11:38:58;;;;;;;16.63;10.00;;;;;;;-1.75;66.96;99322.78;4890567;29;20067;-68
2022/11/21 11:47:29;;;;;;;;;;;;;;;-1.70;67.05;99325.72;4878272;29;20064;-69
2022/11/21 11:47:31;;;;;;;24.75;10.60;;;;;;;-1.86;66.88;99316.09;4890545;29;20048;-70
2022/11/21 11:50:18;;;;;;;21.40;11.07;;;;;;;-1.91;67.70;99315.75;4889712;29;20570;-69